Time;durP1;ratioP1;P1;durP2;ratioP2;P2;SDS_P1;SDS_P2;PMS_P1;PMS_P2;Temp;Humidity;BMP_temperature;BMP_pressure;BME280_temperature;BME280_humidity;BME280_pressure;Samples;Min_cycle;Max_cycle;Signal;HPM_P1;HPM_P2
2022/04/03 00:01:28;;;;;;;;;12.00;12.00;;;;;6.44;45.96;101614.75;4991384;28;45408;-83
2022/04/03 00:03:53;;;;;;;;;11.00;11.00;;;;;6.50;45.99;101615.16;4990633;28;45522;-83
2022/04/03 00:06:19;;;;;;;;;13.50;13.25;;;;;6.34;46.00;101589.75;4991158;28;46209;-83
2022/04/03 00:08:44;;;;;;;;;12.25;11.25;;;;;6.43;46.06;101616.47;4991329;28;45521;-83
2022/04/03 00:11:11;;;;;;;;;11.75;11.50;;;;;6.26;45.90;101571.81;4972625;28;46168;-83
2022/04/03 00:13:37;;;;;;;;;12.50;12.00;;;;;6.59;46.11;101631.41;4991273;28;45835;-83
2022/04/03 00:16:03;;;;;;;;;11.25;11.25;;;;;6.26;46.28;101582.25;4989721;28;45469;-83
2022/04/03 00:18:29;;;;;;;;;14.75;14.00;;;;;6.36;46.15;101595.09;4990678;28;45620;-83
2022/04/03 00:20:54;;;;;;;;;15.00;14.00;;;;;6.62;45.96;101638.56;4990847;28;45456;-83
2022/04/03 00:23:23;;;;;;;;;15.75;14.50;;;;;6.47;46.32;101620.19;4972843;28;45695;-84
2022/04/03 00:25:49;;;;;;;;;13.00;12.00;;;;;6.59;45.80;101640.97;4972201;28;47076;-83
2022/04/03 00:28:15;;;;;;;;;15.50;15.50;;;;;6.21;46.09;101571.50;4990591;28;45472;-83
2022/04/03 00:30:42;;;;;;;;;14.00;13.50;;;;;6.16;46.21;101571.22;4973118;28;45565;-83
2022/04/03 00:33:08;;;;;;;;;17.00;15.25;;;;;6.33;46.11;101595.78;4990476;28;45882;-83
2022/04/03 00:35:34;;;;;;;;;14.50;14.50;;;;;6.16;45.97;101576.44;4990829;28;45574;-83
2022/04/03 00:37:59;;;;;;;;;17.50;15.75;;;;;6.08;46.29;101572.41;4990216;28;45400;-83
2022/04/03 00:40:26;;;;;;;;;16.00;14.75;;;;;6.11;46.28;101572.63;4972200;28;45525;-83
2022/04/03 00:42:52;;;;;;;;;14.00;14.00;;;;;6.30;46.04;101608.63;4972581;28;46081;-83
2022/04/03 00:45:17;;;;;;;;;17.00;16.00;;;;;6.30;46.18;101619.06;4988943;28;46895;-83
2022/04/03 00:47:42;;;;;;;;;16.50;15.75;;;;;6.13;45.94;101591.88;4990409;28;45518;-83
2022/04/03 00:50:08;;;;;;;;;12.50;12.25;;;;;5.94;46.28;101562.75;4972149;28;45533;-83
2022/04/03 00:52:34;;;;;;;;;12.00;11.50;;;;;6.18;46.41;101606.13;4990902;28;45519;-83
2022/04/03 00:54:59;;;;;;;;;17.50;16.50;;;;;6.15;46.41;101610.22;4989616;28;45600;-83
2022/04/03 00:57:26;;;;;;;;;16.00;16.00;;;;;6.14;46.35;101611.94;4988858;28;45819;-83
2022/04/03 00:59:54;;;;;;;;;16.25;15.50;;;;;6.12;46.36;101612.66;4990120;28;45998;-83
2022/04/03 01:02:19;;;;;;;;;18.50;15.25;;;;;5.97;46.75;101586.47;4971739;28;45437;-83
2022/04/03 01:04:44;;;;;;;;;14.75;13.50;;;;;6.21;46.80;101634.16;4990414;28;45395;-83
2022/04/03 01:07:10;;;;;;;;;16.33;16.33;;;;;5.97;46.72;101589.06;4990060;28;45594;-83
2022/04/03 01:09:36;;;;;;;;;13.33;12.00;;;;;6.00;46.78;101601.41;4990078;28;45476;-83
2022/04/03 01:12:03;;;;;;;;;16.00;14.75;;;;;6.15;46.98;101632.00;4989991;28;45664;-83
2022/04/03 01:14:39;;;;;;;;;14.75;14.75;;;;;6.06;46.82;101613.16;4989886;28;45583;-83
2022/04/03 01:17:06;;;;;;;;;14.75;14.50;;;;;6.00;47.23;101610.13;4989607;28;45535;-83
2022/04/03 01:19:32;;;;;;;;;6.00;6.00;;;;;6.08;46.94;101635.03;4990367;28;45499;-83
2022/04/03 01:21:58;;;;;;;;;13.00;12.00;;;;;5.98;46.64;101605.63;4971964;28;45545;-84
2022/04/03 01:24:25;;;;;;;;;16.75;15.25;;;;;6.18;46.94;101636.56;4989567;28;46912;-83
2022/04/03 01:26:51;;;;;;;;;14.25;14.25;;;;;6.02;47.31;101613.75;4988545;28;45573;-83
2022/04/03 01:29:17;;;;;;;;;15.00;15.00;;;;;6.19;47.56;101630.53;4989961;28;45842;-83
2022/04/03 01:31:44;;;;;;;;;14.50;11.50;;;;;6.20;47.28;101630.59;4989725;28;45626;-83
2022/04/03 01:34:09;;;;;;;;;12.00;11.75;;;;;5.95;47.59;101595.88;4989492;28;45463;-83
2022/04/03 01:36:35;;;;;;;;;16.25;14.25;;;;;6.08;47.20;101623.69;4990240;28;45408;-83
2022/04/03 01:39:00;;;;;;;;;13.75;12.50;;;;;5.96;47.54;101600.31;4989639;28;45369;-83
2022/04/03 01:41:26;;;;;;;;;15.25;13.25;;;;;5.98;47.69;101608.22;4989359;28;45438;-83
2022/04/03 01:43:51;;;;;;;;;15.00;14.33;;;;;5.87;47.83;101581.41;4989464;28;45397;-83
2022/04/03 01:46:16;;;;;;;;;16.50;15.00;;;;;6.13;47.59;101640.56;4989437;28;45484;-83
2022/04/03 01:48:42;;;;;;;;;16.33;15.67;;;;;6.00;47.84;101615.34;4989990;28;45377;-83
2022/04/03 01:51:07;;;;;;;;;15.25;15.25;;;;;5.68;47.97;101555.78;4989623;28;45805;-83
2022/04/03 01:53:33;;;;;;;;;12.75;12.50;;;;;5.76;47.85;101571.94;4989927;28;46195;-83
2022/04/03 01:55:59;;;;;;;;;14.00;12.33;;;;;5.87;48.01;101586.63;4988461;28;45753;-83
2022/04/03 01:58:24;;;;;;;;;19.50;18.50;;;;;6.01;48.21;101619.78;4988127;28;45475;-83
2022/04/03 02:00:49;;;;;;;;;12.00;11.75;;;;;5.64;47.98;101552.06;4989568;28;45332;-83
2022/04/03 02:03:15;;;;;;;;;15.33;14.00;;;;;5.76;48.18;101569.31;4989027;28;46596;-83
2022/04/03 02:05:40;;;;;;;;;15.00;13.75;;;;;5.76;47.77;101571.94;4971893;28;45439;-83
2022/04/03 02:08:06;;;;;;;;;15.33;15.00;;;;;6.12;48.37;101647.50;4989370;28;45294;-83
2022/04/03 02:10:32;;;;;;;;;15.00;14.50;;;;;5.85;48.31;101580.38;4988960;28;46198;-83
2022/04/03 02:12:57;;;;;;;;;12.00;11.25;;;;;5.91;48.31;101586.97;4970938;28;47149;-83
2022/04/03 02:15:23;;;;;;;;;15.25;14.75;;;;;5.76;48.15;101575.44;4971538;28;45911;-83
2022/04/03 02:17:48;;;;;;;;;16.25;15.25;;;;;5.78;48.29;101578.16;4989324;28;45550;-83
2022/04/03 02:20:13;;;;;;;;;15.50;15.00;;;;;5.97;48.67;101609.94;4989318;28;45315;-83
2022/04/03 02:22:39;;;;;;;;;15.25;14.75;;;;;6.04;48.43;101608.63;4989504;28;45436;-83
2022/04/03 02:25:09;;;;;;;;;16.00;14.00;;;;;6.07;48.07;101622.78;4988235;28;45557;-83
2022/04/03 02:27:34;;;;;;;;;14.75;13.75;;;;;6.07;48.20;101635.84;4989913;28;45555;-83
2022/04/03 02:30:00;;;;;;;;;15.00;13.50;;;;;5.86;48.38;101588.31;4971191;28;45575;-83
2022/04/03 02:32:25;;;;;;;;;16.50;13.75;;;;;5.93;48.21;101587.03;4988940;28;45516;-83
2022/04/03 02:34:52;;;;;;;;;17.75;16.25;;;;;6.00;48.27;101609.22;4988998;28;45456;-83
2022/04/03 02:37:18;;;;;;;;;15.50;15.00;;;;;5.90;48.57;101584.19;4989709;28;45376;-83
2022/04/03 02:39:44;;;;;;;;;14.75;14.25;;;;;6.13;48.72;101632.72;4992100;28;45520;-83
2022/04/03 02:42:09;;;;;;;;;12.00;11.00;;;;;6.08;48.89;101629.81;4973968;28;48013;-83
2022/04/03 02:44:35;;;;;;;;;10.25;10.25;;;;;5.77;48.64;101577.25;4974911;28;45596;-83
2022/04/03 02:47:00;;;;;;;;;13.00;13.00;;;;;6.00;48.58;101624.88;4974317;28;45617;-83
2022/04/03 02:49:26;;;;;;;;;14.50;14.00;;;;;5.86;48.64;101600.44;4992574;28;45540;-83
2022/04/03 02:51:51;;;;;;;;;14.00;12.00;;;;;5.94;48.94;101617.56;4992331;28;45461;-83
2022/04/03 02:54:17;;;;;;;;;13.00;12.50;;;;;5.46;48.89;101536.88;4991398;28;45523;-83
2022/04/03 02:56:42;;;;;;;;;12.50;12.50;;;;;5.53;49.07;101553.03;4992427;28;45462;-83
2022/04/03 02:59:07;;;;;;;;;14.33;12.00;;;;;5.82;49.28;101601.97;4974419;28;45505;-82
2022/04/03 03:01:33;;;;;;;;;11.25;10.25;;;;;6.00;49.10;101636.22;4991653;28;46318;-83
2022/04/03 03:03:59;;;;;;;;;13.75;13.75;;;;;5.75;48.98;101594.50;4991822;28;45544;-83
2022/04/03 03:06:24;;;;;;;;;7.00;6.00;;;;;5.87;49.13;101618.81;4974739;28;45448;-83
2022/04/03 03:08:49;;;;;;;;;14.00;12.67;;;;;5.70;49.24;101588.97;4991797;28;45692;-83
2022/04/03 03:11:15;;;;;;;;;11.33;10.67;;;;;5.52;49.32;101547.75;4991021;28;46135;-83
2022/04/03 03:13:40;;;;;;;;;13.25;12.00;;;;;5.80;49.44;101593.09;4992362;28;45744;-83
2022/04/03 03:16:06;;;;;;;;;13.75;12.00;;;;;6.10;49.46;101649.06;4991739;28;45329;-83
2022/04/03 03:18:31;;;;;;;;;14.50;14.50;;;;;5.82;49.39;101599.34;4974441;28;45715;-83
2022/04/03 03:20:57;;;;;;;;;14.67;14.00;;;;;5.93;49.25;101621.88;4991610;28;46189;-83
2022/04/03 03:23:23;;;;;;;;;14.00;14.00;;;;;5.74;49.50;101589.19;4991697;28;45801;-83
2022/04/03 03:25:48;;;;;;;;;13.25;11.50;;;;;5.78;49.26;101601.66;4991568;28;45766;-83
2022/04/03 03:28:14;;;;;;;;;14.50;14.25;;;;;5.63;49.28;101581.53;4990126;28;45891;-83
2022/04/03 03:30:39;;;;;;;;;12.00;12.00;;;;;5.77;49.32;101607.66;4991671;28;46269;-83
2022/04/03 03:33:06;;;;;;;;;16.00;15.25;;;;;5.83;49.00;101618.50;4973629;28;45748;-83
2022/04/03 03:35:31;;;;;;;;;13.25;12.00;;;;;5.92;49.28;101629.59;4992279;28;45685;-83
2022/04/03 03:37:57;;;;;;;;;17.25;16.00;;;;;5.79;49.42;101613.88;4991109;28;45376;-83
2022/04/03 03:40:23;;;;;;;;;15.50;13.50;;;;;5.83;49.29;101623.72;4973241;28;46971;-83
2022/04/03 03:42:48;;;;;;;;;11.75;11.00;;;;;5.81;49.63;101617.47;4991660;28;45503;-83
2022/04/03 03:45:14;;;;;;;;;12.00;12.00;;;;;6.04;49.47;101660.81;4991554;28;45749;-84
2022/04/03 03:47:42;;;;;;;;;11.75;11.00;;;;;5.86;49.53;101630.06;4992288;28;45632;-83
2022/04/03 03:50:08;;;;;;;;;13.75;13.75;;;;;5.68;49.69;101610.56;4989997;28;45966;-83
2022/04/03 03:52:33;;;;;;;;;14.50;14.50;;;;;5.86;49.81;101642.16;4991427;28;45452;-83
2022/04/03 03:54:59;;;;;;;;;11.00;10.33;;;;;5.97;49.73;101661.22;4991095;28;45329;-83
2022/04/03 03:57:24;;;;;;;;;15.50;13.75;;;;;5.60;49.95;101601.28;4973611;28;45402;-83
2022/04/03 03:59:50;;;;;;;;;11.67;10.67;;;;;5.75;49.90;101627.50;4973151;28;47362;-83
2022/04/03 04:02:16;;;;;;;;;13.25;12.25;;;;;5.82;50.08;101634.97;4989166;28;45476;-83
2022/04/03 04:04:41;;;;;;;;;11.00;11.00;;;;;5.74;50.09;101631.81;4991721;28;45483;-83
2022/04/03 04:07:06;;;;;;;;;16.00;15.50;;;;;5.60;50.16;101599.59;4990920;28;45431;-83
2022/04/03 04:09:32;;;;;;;;;15.00;12.67;;;;;5.69;49.96;101621.06;4991230;28;46815;-83
2022/04/03 04:11:58;;;;;;;;;15.00;12.00;;;;;5.85;50.29;101661.25;4990471;28;45891;-84
2022/04/03 04:14:23;;;;;;;;;11.75;11.00;;;;;5.66;49.69;101623.50;4991140;28;45550;-83
2022/04/03 04:16:48;;;;;;;;;14.00;12.50;;;;;5.60;49.95;101620.44;4973005;28;45398;-83
2022/04/03 04:19:15;;;;;;;;;14.00;12.33;;;;;5.66;50.13;101633.94;4990814;28;45915;-83
2022/04/03 04:21:40;;;;;;;;;12.75;11.50;;;;;5.53;50.05;101615.63;4991173;28;45827;-83
2022/04/03 04:24:06;;;;;;;;;13.50;12.25;;;;;5.56;50.46;101628.84;4990029;28;45490;-83
2022/04/03 04:26:31;;;;;;;;;13.75;13.25;;;;;5.50;50.37;101617.09;4991271;28;45510;-83
2022/04/03 04:28:57;;;;;;;;;13.33;12.00;;;;;5.56;50.25;101628.84;4990548;28;46108;-83
2022/04/03 04:31:22;;;;;;;;;12.75;12.00;;;;;5.38;50.18;101606.75;4990289;28;45829;-83
2022/04/03 04:33:47;;;;;;;;;12.25;11.50;;;;;5.55;50.22;101634.88;4991071;28;45451;-83
2022/04/03 04:36:13;;;;;;;;;14.00;12.75;;;;;5.46;50.36;101630.72;4990625;28;45463;-83
2022/04/03 04:38:38;;;;;;;;;14.75;14.75;;;;;5.62;50.22;101659.69;4972891;28;46928;-83
2022/04/03 04:41:04;;;;;;;;;12.25;12.25;;;;;5.52;50.27;101645.09;4990057;28;45483;-83
2022/04/03 04:43:30;;;;;;;;;12.25;11.25;;;;;5.79;50.14;101694.75;4990879;28;45591;-83
2022/04/03 04:45:55;;;;;;;;;15.25;14.50;;;;;5.54;50.14;101661.75;4972304;28;45482;-83
2022/04/03 04:48:21;;;;;;;;;12.25;11.25;;;;;5.43;50.03;101652.28;4989153;28;46954;-83
2022/04/03 04:50:46;;;;;;;;;12.75;12.75;;;;;5.69;50.15;101708.84;4990692;28;45499;-83
2022/04/03 04:53:11;;;;;;;;;13.50;12.25;;;;;5.63;50.42;101693.69;4990264;28;45716;-83
2022/04/03 04:55:37;;;;;;;;;13.50;11.75;;;;;5.57;50.12;101688.03;4990418;28;45773;-83
2022/04/03 04:58:02;;;;;;;;;14.75;14.50;;;;;5.35;50.58;101658.66;4990030;28;45499;-83
2022/04/03 05:00:29;;;;;;;;;13.75;12.25;;;;;5.51;50.62;101700.63;4989812;28;45769;-83
2022/04/03 05:02:55;;;;;;;;;12.75;12.00;;;;;5.38;50.45;101683.25;4972419;28;45683;-83
2022/04/03 05:05:24;;;;;;;;;13.00;11.00;;;;;5.04;50.46;101645.19;4990587;28;45476;-83
2022/04/03 05:07:58;;;;;;;;;12.75;12.25;;;;;5.08;50.71;101662.84;4989634;28;45725;-83
2022/04/03 05:10:25;;;;;;;;;15.00;13.75;;;;;5.26;50.88;101702.31;4989765;28;45653;-83
2022/04/03 05:12:53;;;;;;;;;10.50;10.00;;;;;4.81;50.88;101635.72;4972521;28;45792;-83
2022/04/03 05:15:19;;;;;;;;;11.75;10.75;;;;;4.96;50.71;101667.16;4989961;28;45571;-83
2022/04/03 05:17:45;;;;;;;;;11.00;10.25;;;;;4.97;50.93;101682.88;4990326;28;45488;-83
2022/04/03 05:20:12;;;;;;;;;11.50;11.00;;;;;5.13;51.18;101706.66;4989915;28;45364;-83
2022/04/03 05:22:39;;;;;;;;;10.75;9.75;;;;;5.10;51.27;101714.25;4989835;28;45696;-83
2022/04/03 05:25:05;;;;;;;;;12.00;11.75;;;;;5.06;51.39;101714.81;4989262;28;45521;-83
2022/04/03 05:27:32;;;;;;;;;11.00;11.00;;;;;5.03;51.21;101718.94;4989873;28;47434;-83
2022/04/03 05:29:58;;;;;;;;;14.25;13.75;;;;;4.64;51.31;101661.44;4989293;28;45745;-83
2022/04/03 05:32:26;;;;;;;;;5.75;5.75;;;;;4.73;51.28;101681.13;4990402;28;45526;-83
2022/04/03 05:34:51;;;;;;;;;9.75;9.75;;;;;4.96;51.52;101716.66;4972443;28;45690;-83
2022/04/03 05:37:16;;;;;;;;;12.75;11.00;;;;;4.95;51.59;101723.56;4988211;28;47585;-83
2022/04/03 05:39:42;;;;;;;;;12.33;11.67;;;;;4.87;51.40;101714.28;4988194;28;45850;-83
2022/04/03 05:42:07;;;;;;;;;10.50;10.50;;;;;4.79;51.43;101708.53;4989293;28;45484;-83
2022/04/03 05:44:33;;;;;;;;;10.25;8.50;;;;;4.58;51.46;101680.91;4989723;28;45429;-83
2022/04/03 05:46:58;;;;;;;;;10.00;9.00;;;;;4.70;51.73;101707.84;4989736;28;46654;-83
2022/04/03 05:49:23;;;;;;;;;13.67;12.67;;;;;4.63;51.60;101695.16;4989637;28;45578;-82
2022/04/03 05:51:49;;;;;;;;;13.75;13.25;;;;;4.46;51.90;101674.81;4989498;28;45457;-83
2022/04/03 05:54:15;;;;;;;;;11.00;10.00;;;;;4.42;51.78;101676.28;4971580;28;45482;-83
2022/04/03 05:56:40;;;;;;;;;15.67;14.00;;;;;4.47;52.06;101687.91;4989621;28;45424;-83
2022/04/03 05:59:05;;;;;;;;;13.67;10.67;;;;;4.60;51.97;101710.56;4988903;28;46067;-83
2022/04/03 06:01:30;;;;;;;;;12.50;10.50;;;;;4.79;52.07;101742.38;4989743;28;45413;-83
2022/04/03 06:03:57;;;;;;;;;11.00;10.00;;;;;4.81;51.80;101750.31;4989127;28;45552;-83
2022/04/03 06:06:22;;;;;;;;;7.00;6.75;;;;;4.57;52.06;101710.34;4989181;28;46387;-83
2022/04/03 06:08:47;;;;;;;;;11.00;11.00;;;;;4.53;52.23;101710.91;4989776;28;45507;-83
2022/04/03 06:11:13;;;;;;;;;10.00;9.00;;;;;4.53;51.82;101708.28;4988820;28;45492;-83
2022/04/03 06:13:39;;;;;;;;;11.50;10.75;;;;;4.57;52.02;101716.44;4991969;28;45496;-83
2022/04/03 06:16:04;;;;;;;;;11.00;11.00;;;;;4.63;52.03;101724.72;4992750;28;46236;-83
2022/04/03 06:18:30;;;;;;;;;10.00;10.00;;;;;4.83;52.17;101766.97;4993229;28;45493;-83
2022/04/03 06:20:55;;;;;;;;;11.67;11.67;;;;;4.66;51.89;101726.63;4992549;28;45738;-83
2022/04/03 06:23:22;;;;;;;;;10.67;9.00;;;;;4.87;52.06;101763.75;4992836;28;45534;-83
2022/04/03 06:25:57;;;;;;;;;15.00;14.00;;;;;4.87;52.09;101766.38;4992446;28;46513;-83
2022/04/03 06:28:22;;;;;;;;;11.00;11.00;;;;;4.89;51.99;101777.81;4974520;28;45504;-83
2022/04/03 06:30:48;;;;;;;;;13.75;11.75;;;;;4.73;51.79;101743.59;4993205;28;45680;-83
2022/04/03 06:33:15;;;;;;;;;10.75;9.75;;;;;4.94;51.47;101768.66;4974843;28;45492;-83
2022/04/03 06:35:42;;;;;;;;;11.00;11.00;;;;;4.77;51.71;101740.44;4992570;28;46446;-83
2022/04/03 06:38:08;;;;;;;;;14.00;12.75;;;;;4.82;51.73;101745.19;4992401;28;45437;-83
2022/04/03 06:40:34;;;;;;;;;13.33;11.00;;;;;4.54;51.53;101697.13;4992639;28;45435;-83
2022/04/03 06:43:00;;;;;;;;;11.00;11.00;;;;;4.98;51.71;101775.91;4991929;28;45426;-83
2022/04/03 06:45:26;;;;;;;;;11.50;10.25;;;;;4.82;51.43;101755.63;4992915;28;46488;-83
2022/04/03 06:47:51;;;;;;;;;15.75;12.75;;;;;4.69;51.41;101723.38;4974496;28;45732;-83
2022/04/03 06:50:17;;;;;;;;;11.00;10.00;;;;;4.65;51.02;101724.84;4992078;28;45477;-83
2022/04/03 06:52:43;;;;;;;;;14.00;11.75;;;;;4.76;50.92;101751.66;4992654;28;45532;-83
2022/04/03 06:55:09;;;;;;;;;12.75;11.00;;;;;4.74;50.91;101740.25;4991515;28;45442;-83
2022/04/03 06:57:34;;;;;;;;;10.25;10.25;;;;;5.02;50.60;101784.81;4992418;28;45515;-83
2022/04/03 07:00:00;;;;;;;;;11.50;11.50;;;;;4.55;50.64;101712.84;4974262;28;45420;-83
2022/04/03 07:02:25;;;;;;;;;12.25;10.75;;;;;4.76;50.51;101744.75;4990670;28;45485;-83
2022/04/03 07:04:50;;;;;;;;;14.00;12.75;;;;;4.78;50.50;101750.06;4992044;28;46577;-83
2022/04/03 07:07:22;;;;;;;;;13.25;10.75;;;;;4.77;50.79;101756.06;4992304;28;45884;-83
2022/04/03 07:09:47;;;;;;;;;5.00;2.00;;;;;4.86;51.05;101769.78;4974211;28;45474;-83
2022/04/03 07:12:14;;;;;;;;;11.75;10.50;;;;;4.83;50.52;101761.75;4991515;28;45362;-83
2022/04/03 07:14:39;;;;;;;;;11.00;10.75;;;;;4.94;50.70;101770.34;4992309;28;45493;-82
2022/04/03 07:17:04;;;;;;;;;10.50;9.75;;;;;4.71;50.46;101729.59;4990389;28;47021;-83
2022/04/03 07:19:30;;;;;;;;;19.25;16.00;;;;;4.92;50.27;101763.31;4991963;28;45474;-83
2022/04/03 07:21:57;;;;;;;;;13.50;13.25;;;;;4.95;50.26;101767.84;4991801;28;45515;-83
2022/04/03 07:24:22;;;;;;;;;13.50;12.00;;;;;4.86;50.07;101757.66;4990150;28;46117;-83
2022/04/03 07:26:48;;;;;;;;;16.33;14.00;;;;;5.08;50.37;101790.50;4991866;28;45484;-83
2022/04/03 07:29:13;;;;;;;;;13.50;12.50;;;;;5.01;50.10;101777.81;4973565;28;45866;-83
2022/04/03 07:31:39;;;;;;;;;14.75;13.25;;;;;4.94;50.06;101755.63;4992192;28;45551;-83
2022/04/03 07:34:04;;;;;;;;;11.33;11.33;;;;;5.08;50.17;101783.59;4991343;28;49577;-83
2022/04/03 07:36:30;;;;;;;;;16.33;13.67;;;;;5.07;50.29;101781.75;4991440;28;45532;-83
2022/04/03 07:38:56;;;;;;;;;13.00;11.75;;;;;5.18;49.85;101796.50;4991404;28;45597;-83
2022/04/03 07:41:21;;;;;;;;;11.00;11.00;;;;;5.10;49.91;101770.66;4991611;28;45758;-83
2022/04/03 07:43:47;;;;;;;;;14.50;13.50;;;;;5.07;50.01;101757.41;4989723;28;46997;-83
2022/04/03 07:46:16;;;;;;;;;8.50;8.50;;;;;5.14;49.92;101772.72;4989896;28;45718;-83
2022/04/03 07:48:42;;;;;;;;;14.00;13.50;;;;;5.34;49.60;101813.25;4991931;28;45446;-83
2022/04/03 07:51:07;;;;;;;;;12.50;11.50;;;;;5.44;49.43;101821.84;4990870;28;45336;-83
2022/04/03 07:53:32;;;;;;;;;14.00;10.25;;;;;5.37;49.23;101809.19;4991783;28;45538;-82
2022/04/03 07:55:58;;;;;;;;;13.00;11.00;;;;;5.18;49.38;101778.25;4990988;28;45924;-83
2022/04/03 07:58:23;;;;;;;;;12.00;11.00;;;;;5.24;49.06;101776.88;4991051;28;45498;-83
2022/04/03 08:00:48;;;;;;;;;13.50;11.50;;;;;5.36;49.21;101793.41;4990921;28;45465;-83
2022/04/03 08:03:14;;;;;;;;;13.33;11.00;;;;;5.56;48.60;101828.72;4973076;28;46028;-83
2022/04/03 08:05:40;;;;;;;;;13.00;11.75;;;;;5.48;49.02;101809.94;4991238;28;45575;-83
2022/04/03 08:08:06;;;;;;;;;13.50;10.00;;;;;5.41;48.81;101789.41;4991232;28;45408;-83
2022/04/03 08:10:31;;;;;;;;;11.00;9.50;;;;;5.74;48.98;101840.47;4973222;28;45718;-83
2022/04/03 08:12:57;;;;;;;;;11.50;10.75;;;;;5.48;48.32;101786.47;4972550;28;46977;-83
2022/04/03 08:15:25;;;;;;;;;10.00;9.50;;;;;5.64;48.22;101805.00;4991123;28;45464;-83
2022/04/03 08:17:50;;;;;;;;;9.75;9.75;;;;;5.77;48.31;101845.03;4991199;28;45632;-83
2022/04/03 08:20:17;;;;;;;;;16.00;15.33;;;;;5.66;48.50;101813.88;4990981;28;45356;-83
2022/04/03 08:22:44;;;;;;;;;15.75;12.75;;;;;5.91;48.77;101839.06;4990929;28;45684;-83
2022/04/03 08:25:10;;;;;;;;;9.00;8.50;;;;;5.46;47.99;101761.97;4990623;28;45639;-83
2022/04/03 08:27:47;;;;;;;;;12.50;11.00;;;;;5.90;47.82;101822.50;4991012;28;45500;-83
2022/04/03 08:30:26;;;;;;;;;11.75;11.00;;;;;5.95;47.48;101835.91;4990670;28;45631;-83
2022/04/03 08:32:53;;;;;;;;;9.25;8.25;;;;;5.88;47.72;101824.09;4990838;28;45499;-83
2022/04/03 08:35:19;;;;;;;;;10.75;8.75;;;;;6.09;47.40;101855.16;4990060;28;45686;-83
2022/04/03 08:37:46;;;;;;;;;9.00;8.50;;;;;5.98;46.92;101836.13;4991090;28;45432;-83
2022/04/03 08:40:13;;;;;;;;;10.25;10.00;;;;;5.98;46.78;101828.31;4990207;28;45542;-83
2022/04/03 08:42:41;;;;;;;;;10.25;10.00;;;;;5.86;47.05;101801.31;4972960;28;47583;-83
2022/04/03 08:45:11;;;;;;;;;11.00;10.00;;;;;5.91;46.85;101818.19;4990492;28;45317;-83
2022/04/03 08:48:01;;;;;;;;;10.50;9.75;;;;;6.23;46.78;101858.72;4991221;28;45464;-83
2022/04/03 08:50:30;;;;;;;;;9.75;8.25;;;;;6.18;46.80;101846.25;4990566;28;45570;-83
2022/04/03 08:52:59;;;;;;;;;10.75;10.75;;;;;6.23;46.42;101848.28;4990226;28;45562;-83
2022/04/03 08:55:25;;;;;;;;;10.75;9.75;;;;;5.98;46.68;101793.50;4990273;28;45948;-83
2022/04/03 08:57:50;;;;;;;;;7.50;7.00;;;;;6.26;46.28;101838.06;4990693;28;45592;-83
2022/04/03 09:00:16;;;;;;;;;8.00;7.75;;;;;6.24;46.01;101843.16;4989018;28;45695;-83
2022/04/03 09:02:45;;;;;;;;;6.50;6.50;;;;;6.42;45.57;101859.22;4990482;28;46559;-83
2022/04/03 09:05:10;;;;;;;;;8.75;7.50;;;;;6.20;45.66;101815.94;4990019;28;45462;-83
2022/04/03 09:07:38;;;;;;;;;2.50;2.25;;;;;6.49;45.79;101856.22;4990773;28;45365;-83
2022/04/03 09:10:09;;;;;;;;;10.00;9.00;;;;;6.53;45.64;101849.50;4989579;28;45492;-83
2022/04/03 09:12:49;;;;;;;;;7.00;7.00;;;;;6.40;44.88;101826.84;4990043;28;45350;-83
2022/04/03 09:15:17;;;;;;;;;7.25;7.00;;;;;6.25;44.83;101784.94;4990310;28;45896;-83
2022/04/03 09:17:44;;;;;;;;;7.00;5.00;;;;;6.24;45.07;101779.63;4972677;28;45358;-83
2022/04/03 09:20:10;;;;;;;;;6.50;6.50;;;;;6.65;44.72;101846.03;4989662;28;45718;-83
2022/04/03 09:22:37;;;;;;;;;8.00;7.25;;;;;6.65;44.80;101834.66;4990320;28;45549;-83
2022/04/03 09:25:07;;;;;;;;;5.50;5.50;;;;;6.67;44.54;101831.34;4989188;28;45584;-83
2022/04/03 09:27:52;;;;;;;;;7.00;6.25;;;;;6.62;44.03;101822.31;4990128;28;45630;-83
2022/04/03 09:30:19;;;;;;;;;5.25;4.50;;;;;6.57;43.51;101813.25;4990289;28;45484;-83
2022/04/03 09:32:47;;;;;;;;;5.75;5.25;;;;;6.76;43.30;101851.06;4989676;28;46326;-83
2022/04/03 09:35:13;;;;;;;;;7.75;7.50;;;;;6.53;43.60;101794.66;4989924;28;45963;-83
2022/04/03 09:37:39;;;;;;;;;5.00;5.00;;;;;6.69;43.18;101821.00;4990517;28;45524;-83
2022/04/03 09:40:05;;;;;;;;;6.75;6.75;;;;;6.74;43.48;101811.75;4989161;28;45671;-83
2022/04/03 09:42:31;;;;;;;;;6.00;6.00;;;;;6.86;43.37;101824.75;4972395;28;47050;-83
2022/04/03 09:44:56;;;;;;;;;8.67;7.00;;;;;6.87;43.48;101813.50;4989401;28;45440;-83
2022/04/03 09:47:28;;;;;;;;;5.00;5.00;;;;;7.02;43.34;101830.19;4988839;28;45441;-83
2022/04/03 09:49:59;;;;;;;;;7.00;6.00;;;;;7.04;43.09;101811.97;4989695;28;45454;-83
2022/04/03 09:52:51;;;;;;;;;6.00;6.00;;;;;7.09;42.71;101815.81;4971804;28;47408;-83
2022/04/03 09:55:20;;;;;;;;;6.50;5.75;;;;;7.27;42.29;101844.88;4988905;28;45533;-83
2022/04/03 09:57:48;;;;;;;;;3.00;2.75;;;;;6.92;42.06;101788.56;4990158;28;45567;-83
2022/04/03 10:00:30;;;;;;;;;3.25;3.25;;;;;7.24;41.45;101843.88;4988250;28;45583;-83
2022/04/03 10:03:01;;;;;;;;;2.25;2.25;;;;;7.04;41.17;101797.19;4988791;28;46398;-83
2022/04/03 10:05:31;;;;;;;;;5.50;2.75;;;;;7.39;40.92;101843.97;4989579;28;45866;-83
2022/04/03 10:08:02;;;;;;;;;3.25;3.00;;;;;7.12;40.53;101768.97;4971440;28;45459;-83
2022/04/03 10:10:31;;;;;;;;;2.00;2.00;;;;;7.47;40.40;101828.75;4989240;28;45777;-83
2022/04/03 10:12:58;;;;;;;;;1.75;1.50;;;;;7.53;39.34;101826.53;4971613;28;46212;-83
2022/04/03 10:15:25;;;;;;;;;2.75;2.75;;;;;7.53;39.37;101817.78;4989501;28;45467;-83
2022/04/03 10:17:51;;;;;;;;;2.00;1.75;;;;;7.56;39.63;101813.66;4989175;28;45360;-83
2022/04/03 10:20:17;;;;;;;;;3.25;3.00;;;;;7.46;39.01;101785.09;4989371;28;45491;-83
2022/04/03 10:22:47;;;;;;;;;3.25;3.25;;;;;7.62;38.87;101810.53;4989061;28;46489;-83
2022/04/03 10:25:18;;;;;;;;;2.25;2.25;;;;;7.73;38.58;101819.94;4988268;28;45453;-83
2022/04/03 10:27:44;;;;;;;;;2.00;2.00;;;;;7.63;38.50;101810.59;4989628;28;45464;-83
2022/04/03 10:30:10;;;;;;;;;1.50;1.00;;;;;7.53;38.60;101784.66;4988940;28;45662;-83
2022/04/03 10:32:36;;;;;;;;;3.00;2.00;;;;;7.64;38.54;101785.38;4989135;28;46396;-83
2022/04/03 10:35:08;;;;;;;;;1.00;1.00;;;;;7.78;37.80;101797.59;4971342;28;45961;-83
2022/04/03 10:37:38;;;;;;;;;0.50;0.50;;;;;7.97;37.93;101825.81;4971984;28;45788;-83
2022/04/03 10:40:23;;;;;;;;;1.00;1.00;;;;;7.82;38.25;101794.34;4988110;28;45451;-83
2022/04/03 10:43:01;;;;;;;;;1.50;1.50;;;;;8.08;38.12;101831.72;4989045;28;45498;-83
2022/04/03 10:45:29;;;;;;;;;2.00;2.00;;;;;8.08;38.26;101818.63;4971354;28;45425;-83
2022/04/03 10:48:19;;;;;;;;;2.50;2.25;;;;;8.16;37.78;101828.75;4988978;28;45659;-83
2022/04/03 10:51:03;;;;;;;;;3.50;3.25;;;;;8.14;37.85;101812.06;4971289;28;45445;-83
2022/04/03 10:53:31;;;;;;;;;4.50;3.00;;;;;8.18;37.67;101798.34;4989219;28;46425;-83
2022/04/03 10:55:58;;;;;;;;;3.75;3.00;;;;;8.03;37.77;101766.00;4987902;28;45488;-83
2022/04/03 10:58:24;;;;;;;;;3.00;3.00;;;;;8.26;38.12;101786.63;4971617;28;45609;-83
2022/04/03 11:00:52;;;;;;;;;3.00;3.00;;;;;8.08;37.23;101748.88;4992385;28;45820;-83
2022/04/03 11:03:17;;;;;;;;;3.00;3.00;;;;;8.53;37.59;101823.19;4991604;28;45349;-83
2022/04/03 11:05:45;;;;;;;;;4.67;4.67;;;;;8.42;37.12;101793.75;4992168;28;45480;-83
2022/04/03 11:08:13;;;;;;;;;3.25;3.25;;;;;8.49;37.54;101816.84;4992479;28;45651;-83
2022/04/03 11:10:54;;;;;;;;;4.00;2.75;;;;;8.44;37.31;101825.25;4991939;28;45339;-83
2022/04/03 11:13:23;;;;;;;;;3.00;3.00;;;;;8.44;37.32;101815.69;4991998;28;45463;-84
2022/04/03 11:15:48;;;;;;;;;6.00;6.00;;;;;8.41;37.22;101811.97;4991736;28;45845;-83
2022/04/03 11:18:35;;;;;;;;;5.33;4.00;;;;;7.63;36.74;101668.44;4989996;28;45542;-83
2022/04/03 11:21:40;;;;;;;;;6.75;6.00;;;;;8.46;37.08;101805.28;4991826;28;45472;-83